Time;durP1;ratioP1;P1;durP2;ratioP2;P2;SDS_P1;SDS_P2;PMS_P1;PMS_P2;Temp;Humidity;BMP_temperature;BMP_pressure;BME280_temperature;BME280_humidity;BME280_pressure;Samples;Min_cycle;Max_cycle;Signal;HPM_P1;HPM_P2
2022/08/28 00:00:17;;;;;;;17.85;13.02;;;19.70;99.90;;;;;;4961544;28;20808;-88
2022/08/28 00:02:45;;;;;;;16.23;12.40;;;19.70;99.90;;;;;;4953596;28;20416;-88
2022/08/28 00:05:15;;;;;;;18.95;12.90;;;19.70;99.90;;;;;;4953446;28;20468;-88
2022/08/28 00:07:43;;;;;;;21.63;14.10;;;19.60;99.90;;;;;;4949493;29;20433;-89
2022/08/28 00:10:16;;;;;;;18.27;14.05;;;19.60;99.90;;;;;;4959419;28;20448;-89
2022/08/28 00:12:46;;;;;;;19.38;13.25;;;19.50;99.90;;;;;;4952530;29;20435;-89
2022/08/28 00:15:18;;;;;;;21.02;12.45;;;19.50;99.90;;;;;;4953828;29;20396;-89
2022/08/28 00:17:46;;;;;;;19.40;13.70;;;19.50;99.90;;;;;;4953840;28;20419;-89
2022/08/28 00:20:17;;;;;;;19.85;12.88;;;19.50;99.90;;;;;;4953418;29;20415;-89
2022/08/28 00:22:46;;;;;;;17.10;13.45;;;19.50;99.90;;;;;;4963741;28;20545;-88
2022/08/28 00:25:16;;;;;;;21.63;14.20;;;19.50;99.90;;;;;;4953141;28;20420;-88
2022/08/28 00:27:52;;;;;;;19.30;13.60;;;19.40;99.90;;;;;;4952984;28;20397;-88
2022/08/28 00:30:33;;;;;;;18.60;12.80;;;19.40;99.90;;;;;;4956283;29;20455;-88
2022/08/28 00:33:05;;;;;;;17.75;12.90;;;19.30;99.90;;;;;;4953872;29;20400;-87
2022/08/28 00:35:33;;;;;;;19.52;12.77;;;19.30;99.90;;;;;;4956938;29;20517;-88
2022/08/28 00:38:01;;;;;;;15.27;11.85;;;19.40;99.90;;;;;;4956758;28;20412;-87
2022/08/28 00:40:30;;;;;;;19.35;12.45;;;19.50;99.90;;;;;;4952298;28;20776;-88
2022/08/28 00:43:04;;;;;;;18.48;12.73;;;19.40;99.90;;;;;;4953393;29;20419;-88
2022/08/28 00:45:33;;;;;;;19.52;13.15;;;19.30;99.90;;;;;;4965840;28;20485;-88
2022/08/28 00:48:07;;;;;;;18.10;12.30;;;19.30;99.90;;;;;;4956571;28;20412;-88
2022/08/28 00:53:28;;;;;;;18.05;13.18;;;19.20;99.90;;;;;;4953089;29;20445;-87
2022/08/28 00:56:07;;;;;;;17.43;12.23;;;19.20;99.90;;;;;;4955082;29;20408;-88
2022/08/28 00:58:42;;;;;;;15.40;11.43;;;19.10;99.90;;;;;;4949835;29;20411;-88
2022/08/28 01:01:11;;;;;;;16.60;12.43;;;19.20;99.90;;;;;;4955698;28;20416;-89
2022/08/28 01:03:39;;;;;;;20.63;13.20;;;19.10;99.90;;;;;;4955347;28;20420;-88
2022/08/28 01:06:07;;;;;;;17.13;13.60;;;19.10;99.90;;;;;;4963571;28;20564;-89
2022/08/28 01:08:37;;;;;;;19.65;12.57;;;19.10;99.90;;;;;;4956803;28;20428;-88
2022/08/28 01:11:06;;;;;;;16.90;12.30;;;19.10;99.90;;;;;;4956431;28;20950;-88
2022/08/28 01:13:38;;;;;;;16.70;11.75;;;19.00;99.90;;;;;;4956221;28;20412;-88
2022/08/28 01:16:07;;;;;;;17.63;12.43;;;19.00;99.90;;;;;;4953530;29;20409;-88
2022/08/28 01:18:35;;;;;;;15.52;12.15;;;19.00;99.90;;;;;;4955307;28;20459;-88
2022/08/28 01:21:28;;;;;;;14.75;11.50;;;19.00;99.90;;;;;;4955882;28;20416;-89
2022/08/28 01:24:03;;;;;;;17.13;11.82;;;19.00;99.90;;;;;;4956079;28;20494;-89
2022/08/28 01:26:31;;;;;;;15.13;11.38;;;19.00;99.90;;;;;;4942948;29;20397;-89
2022/08/28 01:29:00;;;;;;;16.13;11.48;;;19.00;99.90;;;;;;4955073;28;20463;-88
2022/08/28 01:31:30;;;;;;;17.40;11.90;;;19.00;99.90;;;;;;4936702;29;20824;-89
2022/08/28 01:33:58;;;;;;;20.20;13.13;;;19.00;99.90;;;;;;4956762;29;20490;-88
2022/08/28 01:36:27;;;;;;;19.45;11.50;;;19.00;99.90;;;;;;4941723;29;20416;-89
2022/08/28 01:39:02;;;;;;;18.63;12.43;;;18.90;99.90;;;;;;4954122;28;20416;-88
2022/08/28 01:41:30;;;;;;;19.07;12.17;;;18.90;99.90;;;;;;4955613;28;20416;-89
2022/08/28 01:43:58;;;;;;;18.77;11.73;;;18.80;99.90;;;;;;4942608;28;20412;-88
2022/08/28 01:46:26;;;;;;;21.05;11.98;;;18.80;99.90;;;;;;4951703;29;20418;-89
2022/08/28 01:48:54;;;;;;;16.67;11.07;;;18.80;99.90;;;;;;4964138;28;20442;-88
2022/08/28 01:51:22;;;;;;;18.00;11.52;;;18.80;99.90;;;;;;4935250;29;20414;-88
2022/08/28 01:53:51;;;;;;;15.88;11.30;;;18.80;99.90;;;;;;4954101;28;20922;-88
2022/08/28 01:56:19;;;;;;;16.75;11.07;;;18.80;99.90;;;;;;4965938;28;20416;-89
2022/08/28 01:58:47;;;;;;;18.02;11.90;;;18.80;99.90;;;;;;4954204;28;20986;-88
2022/08/28 02:01:19;;;;;;;14.68;11.50;;;18.80;99.90;;;;;;4938069;29;20416;-88
2022/08/28 02:03:48;;;;;;;15.35;10.85;;;18.70;99.90;;;;;;4965560;28;20409;-88
2022/08/28 02:06:16;;;;;;;14.43;11.13;;;18.70;99.90;;;;;;4951519;28;20922;-87
2022/08/28 02:08:45;;;;;;;17.75;11.93;;;18.60;99.90;;;;;;4965789;28;20424;-89
2022/08/28 02:11:14;;;;;;;16.30;10.75;;;18.60;99.90;;;;;;4942007;28;20485;-87
2022/08/28 02:13:43;;;;;;;15.90;11.70;;;18.60;99.90;;;;;;4952373;28;20434;-88
2022/08/28 02:16:11;;;;;;;16.42;11.63;;;18.60;99.90;;;;;;4938029;29;20412;-90
2022/08/28 02:18:40;;;;;;;15.60;11.80;;;18.60;99.90;;;;;;4935245;29;20433;-88
2022/08/28 02:21:08;;;;;;;18.57;12.37;;;18.60;99.90;;;;;;4948326;29;20418;-88
2022/08/28 02:23:38;;;;;;;16.58;11.73;;;18.50;99.90;;;;;;4949936;29;20419;-89
2022/08/28 02:26:07;;;;;;;17.50;11.70;;;18.50;99.90;;;;;;4966906;28;20412;-88
2022/08/28 02:28:36;;;;;;;20.03;12.13;;;18.50;99.90;;;;;;4950507;28;20417;-88
2022/08/28 02:31:08;;;;;;;16.27;12.13;;;18.50;99.90;;;;;;4959309;28;20418;-88
2022/08/28 02:33:42;;;;;;;16.05;11.45;;;18.40;99.90;;;;;;4938031;29;20918;-89
2022/08/28 02:36:12;;;;;;;16.75;11.48;;;18.40;99.90;;;;;;4953460;29;20790;-88
2022/08/28 02:38:40;;;;;;;15.13;11.13;;;18.40;99.90;;;;;;4953235;29;20416;-88
2022/08/28 02:41:10;;;;;;;19.60;12.45;;;18.40;99.90;;;;;;4944688;28;20408;-89
2022/08/28 02:43:38;;;;;;;17.23;12.07;;;18.40;99.90;;;;;;4950118;29;20457;-88
2022/08/28 02:46:07;;;;;;;16.08;11.38;;;18.40;99.90;;;;;;4969407;28;20815;-89
2022/08/28 02:48:36;;;;;;;15.50;12.30;;;18.30;99.90;;;;;;4953317;28;21071;-88
2022/08/28 02:51:07;;;;;;;18.35;12.30;;;18.30;99.90;;;;;;4936925;29;20400;-88
2022/08/28 02:53:36;;;;;;;15.43;11.60;;;18.20;99.90;;;;;;4953036;29;20422;-89
2022/08/28 02:56:05;;;;;;;16.55;12.65;;;18.20;99.90;;;;;;4953030;28;20499;-88
2022/08/28 02:58:34;;;;;;;14.77;11.70;;;18.20;99.90;;;;;;4944083;28;20949;-87
2022/08/28 03:01:05;;;;;;;16.60;11.87;;;18.20;99.90;;;;;;4949277;28;20898;-88
2022/08/28 03:03:34;;;;;;;18.27;12.35;;;18.20;99.90;;;;;;4952465;29;20404;-87
2022/08/28 03:06:05;;;;;;;17.42;12.05;;;18.20;99.90;;;;;;4950261;29;20910;-88
2022/08/28 03:08:33;;;;;;;19.42;12.32;;;18.20;99.90;;;;;;4949878;28;20997;-90
2022/08/28 03:11:01;;;;;;;15.63;12.05;;;18.20;99.90;;;;;;4965533;28;20413;-87
2022/08/28 03:13:29;;;;;;;18.25;13.07;;;18.20;99.90;;;;;;4952372;29;20905;-88
2022/08/28 03:15:57;;;;;;;15.97;12.27;;;18.20;99.90;;;;;;4964817;28;20412;-88
2022/08/28 03:18:29;;;;;;;16.92;11.65;;;18.00;99.90;;;;;;4954569;28;20388;-87
2022/08/28 03:20:56;;;;;;;18.85;12.38;;;18.00;99.90;;;;;;4954250;28;20799;-87
2022/08/28 03:23:27;;;;;;;15.43;11.10;;;18.00;99.90;;;;;;4953738;28;20408;-88
2022/08/28 03:25:57;;;;;;;16.38;11.43;;;18.00;99.90;;;;;;4951776;28;20902;-88
2022/08/28 03:28:27;;;;;;;14.73;10.80;;;18.00;99.90;;;;;;4946045;29;20482;-90
2022/08/28 03:30:56;;;;;;;16.20;11.50;;;18.00;99.90;;;;;;4936437;29;20421;-88
2022/08/28 03:33:25;;;;;;;14.93;11.05;;;18.00;99.90;;;;;;4954104;28;20463;-90
2022/08/28 03:35:54;;;;;;;16.70;11.00;;;18.00;99.90;;;;;;4952489;28;20416;-89
2022/08/28 03:38:22;;;;;;;17.60;11.38;;;18.00;99.90;;;;;;4953706;28;20411;-90
2022/08/28 03:40:52;;;;;;;15.95;11.27;;;18.00;99.90;;;;;;4953342;28;20410;-89
2022/08/28 03:43:22;;;;;;;14.82;11.32;;;18.00;99.90;;;;;;4953712;28;20419;-89
2022/08/28 03:45:56;;;;;;;16.70;11.77;;;18.00;99.90;;;;;;4953988;28;20490;-89
2022/08/28 03:48:27;;;;;;;19.10;11.57;;;17.90;99.90;;;;;;4962602;28;20408;-89
2022/08/28 03:50:55;;;;;;;18.27;12.02;;;18.00;99.90;;;;;;4953428;28;20408;-88
2022/08/28 03:53:26;;;;;;;15.55;11.75;;;17.90;99.90;;;;;;4953657;28;20412;-89
2022/08/28 03:55:55;;;;;;;16.38;11.25;;;17.90;99.90;;;;;;4954011;28;20398;-90
2022/08/28 03:58:23;;;;;;;16.27;11.38;;;17.80;99.90;;;;;;4953489;29;20467;-89
2022/08/28 04:00:51;;;;;;;19.40;13.20;;;17.80;99.90;;;;;;4953086;28;20412;-89
2022/08/28 04:03:19;;;;;;;17.83;11.95;;;17.80;99.90;;;;;;4955940;28;20435;-89
2022/08/28 04:05:48;;;;;;;16.70;11.60;;;17.80;99.90;;;;;;4957328;28;20414;-89
2022/08/28 04:08:17;;;;;;;16.80;11.45;;;17.70;99.90;;;;;;4957266;29;20459;-89
2022/08/28 04:10:46;;;;;;;14.68;11.32;;;17.60;99.90;;;;;;4956331;29;20886;-91
2022/08/28 04:13:16;;;;;;;13.32;10.55;;;17.70;99.90;;;;;;4956320;29;20408;-88
2022/08/28 04:15:44;;;;;;;15.30;10.65;;;17.80;99.90;;;;;;4957521;28;20395;-89
2022/08/28 04:18:11;;;;;;;16.97;11.70;;;17.80;99.90;;;;;;4957184;28;20403;-89
2022/08/28 04:20:40;;;;;;;17.30;11.40;;;17.80;99.90;;;;;;4956895;28;20408;-90
2022/08/28 04:23:12;;;;;;;14.65;10.63;;;17.90;99.90;;;;;;4956981;28;20419;-89
2022/08/28 04:25:40;;;;;;;13.88;10.73;;;17.90;99.90;;;;;;4954665;29;20409;-89
2022/08/28 04:28:08;;;;;;;15.45;10.80;;;17.90;99.90;;;;;;4955654;29;20435;-89
2022/08/28 04:30:35;;;;;;;14.70;10.98;;;17.90;99.90;;;;;;4956807;28;20755;-89
2022/08/28 04:33:05;;;;;;;14.23;10.20;;;17.90;99.90;;;;;;4956961;28;20396;-88
2022/08/28 04:35:32;;;;;;;14.07;9.98;;;17.90;99.90;;;;;;4939654;29;20479;-90
2022/08/28 04:38:00;;;;;;;11.48;10.25;;;17.90;99.90;;;;;;4939678;29;20443;-89
2022/08/28 04:40:32;;;;;;;18.92;11.38;;;17.90;99.90;;;;;;4956679;28;20906;-89
2022/08/28 04:42:59;;;;;;;17.87;11.10;;;17.90;99.90;;;;;;4956839;28;20415;-88
2022/08/28 04:45:28;;;;;;;17.08;10.65;;;17.90;99.90;;;;;;4935876;29;20940;-89
2022/08/28 04:47:56;;;;;;;13.80;10.13;;;17.90;99.90;;;;;;4957771;28;20410;-89
2022/08/28 04:50:26;;;;;;;14.20;10.75;;;18.00;99.90;;;;;;4963938;28;20918;-89
2022/08/28 04:52:54;;;;;;;14.98;11.23;;;18.00;99.90;;;;;;4955320;28;20435;-89
2022/08/28 04:55:22;;;;;;;15.02;11.70;;;18.00;99.90;;;;;;4956673;28;20400;-88
2022/08/28 04:58:10;;;;;;;14.98;11.57;;;18.00;99.90;;;;;;4936644;29;20768;-88
2022/08/28 05:00:40;;;;;;;14.68;11.23;;;18.00;99.90;;;;;;4949252;29;20497;-90
2022/08/28 05:03:10;;;;;;;16.40;11.20;;;18.00;99.90;;;;;;4960820;28;20412;-89
2022/08/28 05:05:49;;;;;;;15.93;11.02;;;18.00;99.90;;;;;;4952841;28;20479;-88
2022/08/28 05:08:19;;;;;;;14.63;10.80;;;18.00;99.90;;;;;;4955444;29;20408;-88
2022/08/28 05:10:47;;;;;;;12.67;10.33;;;18.00;99.90;;;;;;4956419;28;20415;-89
2022/08/28 05:13:17;;;;;;;14.40;11.07;;;18.00;99.90;;;;;;4951305;28;20414;-88
2022/08/28 05:15:47;;;;;;;13.77;10.50;;;18.00;99.90;;;;;;4969672;28;20408;-88
2022/08/28 05:18:20;;;;;;;14.18;10.55;;;18.00;99.90;;;;;;4955065;29;20435;-90
2022/08/28 05:20:48;;;;;;;12.32;9.98;;;18.00;99.90;;;;;;4954542;29;20415;-90
2022/08/28 05:23:16;;;;;;;14.52;10.90;;;18.00;99.90;;;;;;4955527;28;20495;-89
2022/08/28 05:25:47;;;;;;;13.30;10.82;;;18.00;99.90;;;;;;4956105;28;20743;-89
2022/08/28 05:28:16;;;;;;;14.40;11.60;;;18.00;99.90;;;;;;4932268;29;20503;-90
2022/08/28 05:30:44;;;;;;;16.70;11.17;;;18.10;99.90;;;;;;4956184;28;20471;-89
2022/08/28 05:33:13;;;;;;;14.75;11.65;;;18.10;99.90;;;;;;4938766;29;20423;-90
2022/08/28 05:35:44;;;;;;;15.73;11.20;;;18.10;99.90;;;;;;4955003;29;20756;-89
2022/08/28 05:38:13;;;;;;;17.87;11.73;;;18.10;99.90;;;;;;4955591;28;20408;-89
2022/08/28 05:40:44;;;;;;;14.65;11.55;;;18.10;99.90;;;;;;4954192;29;20419;-90
2022/08/28 05:43:14;;;;;;;16.00;11.50;;;18.10;99.90;;;;;;4956338;28;20411;-89
2022/08/28 05:45:42;;;;;;;15.63;11.40;;;18.10;99.90;;;;;;4955063;29;20830;-90
2022/08/28 05:48:10;;;;;;;15.82;11.93;;;18.10;99.90;;;;;;4945474;29;20819;-89
2022/08/28 05:50:39;;;;;;;16.50;12.57;;;18.20;99.90;;;;;;4956180;28;20945;-91
2022/08/28 05:53:16;;;;;;;18.10;12.40;;;18.20;99.90;;;;;;4956131;28;20407;-90
2022/08/28 05:55:44;;;;;;;18.05;12.90;;;18.20;99.90;;;;;;4956121;28;20412;-90
2022/08/28 05:58:32;;;;;;;17.27;12.23;;;18.30;99.90;;;;;;4955829;28;20416;-90
2022/08/28 06:01:12;;;;;;;17.90;12.98;;;18.30;99.90;;;;;;4955612;28;20432;-91
2022/08/28 06:03:43;;;;;;;18.42;13.43;;;18.40;99.90;;;;;;4953849;29;20419;-90
2022/08/28 06:06:11;;;;;;;19.02;13.23;;;18.50;99.90;;;;;;4951142;29;20409;-89
2022/08/28 06:08:40;;;;;;;16.37;13.80;;;18.50;99.90;;;;;;4951921;29;20412;-90
2022/08/28 06:11:28;;;;;;;19.17;13.35;;;18.50;99.90;;;;;;4943426;28;20506;-89
2022/08/28 06:14:01;;;;;;;17.93;13.60;;;18.60;99.90;;;;;;4956109;28;20400;-90
2022/08/28 06:16:31;;;;;;;17.75;13.13;;;18.70;99.90;;;;;;4956063;28;20400;-89
2022/08/28 06:18:59;;;;;;;18.40;12.70;;;18.70;99.90;;;;;;4955871;28;20392;-90
2022/08/28 06:21:28;;;;;;;18.47;13.83;;;18.80;99.90;;;;;;4958525;28;20408;-89
2022/08/28 06:23:56;;;;;;;15.70;13.18;;;18.80;99.90;;;;;;4954996;28;20961;-95
2022/08/28 06:26:24;;;;;;;19.38;13.85;;;18.80;99.90;;;;;;4953641;28;20477;-95
2022/08/28 06:28:52;;;;;;;16.77;13.73;;;18.90;99.90;;;;;;4961789;28;20481;-95
2022/08/28 06:31:20;;;;;;;16.83;13.40;;;18.90;99.90;;;;;;4956269;29;20526;-95
2022/08/28 06:33:54;;;;;;;17.42;12.70;;;18.90;99.90;;;;;;4959523;29;20396;-94
2022/08/28 06:36:26;;;;;;;16.15;12.75;;;19.00;99.90;;;;;;4955111;29;20477;-95
2022/08/28 06:38:57;;;;;;;15.38;13.63;;;19.10;99.90;;;;;;4960586;28;20472;-94
2022/08/28 06:41:27;;;;;;;17.92;13.73;;;19.10;99.90;;;;;;4964405;28;20409;-93
2022/08/28 06:43:56;;;;;;;19.70;13.40;;;19.20;99.90;;;;;;4957470;29;20397;-94
2022/08/28 06:46:25;;;;;;;19.30;13.27;;;19.30;99.90;;;;;;4957559;29;20405;-94
2022/08/28 06:48:53;;;;;;;17.25;13.45;;;19.50;99.90;;;;;;4955701;28;20417;-94
2022/08/28 06:51:20;;;;;;;19.15;13.88;;;19.50;99.90;;;;;;4970087;28;20446;-94
2022/08/28 06:53:51;;;;;;;18.00;14.23;;;19.50;99.90;;;;;;4953048;29;21011;-95
2022/08/28 06:56:21;;;;;;;17.42;13.43;;;19.50;99.90;;;;;;4958812;28;20455;-95
2022/08/28 06:58:55;;;;;;;19.35;14.00;;;19.60;99.90;;;;;;4941707;29;20404;-95
2022/08/28 07:01:29;;;;;;;16.63;12.35;;;19.70;99.90;;;;;;4956627;28;20416;-95
2022/08/28 07:04:03;;;;;;;17.02;13.27;;;19.70;99.90;;;;;;4959430;28;20482;-95
2022/08/28 07:06:34;;;;;;;20.00;12.68;;;19.80;99.90;;;;;;4959330;28;20404;-95
2022/08/28 07:09:04;;;;;;;17.38;13.18;;;19.80;99.90;;;;;;4939247;29;20408;-95
2022/08/28 07:11:33;;;;;;;15.30;11.93;;;19.90;99.90;;;;;;4953821;29;20495;-95
2022/08/28 07:14:02;;;;;;;16.55;11.98;;;20.00;99.90;;;;;;4957122;28;20759;-96
2022/08/28 07:16:36;;;;;;;16.50;12.33;;;20.10;99.90;;;;;;4955789;28;20475;-95
2022/08/28 07:19:06;;;;;;;19.30;13.07;;;20.20;99.90;;;;;;4953143;28;20398;-95
2022/08/28 07:21:39;;;;;;;16.90;13.02;;;20.20;99.90;;;;;;4965235;28;20429;-94
2022/08/28 07:24:08;;;;;;;17.48;12.85;;;20.30;99.90;;;;;;4951557;29;20416;-95
2022/08/28 07:26:36;;;;;;;17.65;13.75;;;20.40;99.90;;;;;;4956544;28;20478;-95
2022/08/28 07:29:06;;;;;;;15.50;12.73;;;20.40;99.90;;;;;;4955664;29;20410;-93
2022/08/28 07:31:42;;;;;;;18.27;13.43;;;20.40;99.90;;;;;;4958281;28;20400;-94
2022/08/28 07:34:13;;;;;;;18.05;13.32;;;20.30;99.90;;;;;;4961404;29;20439;-95
2022/08/28 07:36:42;;;;;;;19.08;12.73;;;20.30;99.90;;;;;;4942544;29;20469;-93
2022/08/28 07:39:11;;;;;;;22.00;13.32;;;20.30;99.90;;;;;;4947523;29;20396;-95
2022/08/28 07:41:41;;;;;;;16.08;12.30;;;20.30;99.90;;;;;;4942096;29;20431;-96
2022/08/28 07:47:02;;;;;;;17.10;11.70;;;20.40;99.90;;;;;;4955990;29;20399;-94
2022/08/28 07:49:32;;;;;;;16.38;11.00;;;20.40;99.90;;;;;;4951803;29;20424;-96
2022/08/28 07:52:01;;;;;;;14.02;11.40;;;20.50;99.90;;;;;;4972165;28;20397;-96
2022/08/28 07:54:29;;;;;;;15.68;11.60;;;20.50;99.90;;;;;;4969863;28;20416;-95
2022/08/28 07:56:56;;;;;;;15.35;12.18;;;20.50;99.90;;;;;;4955325;28;20400;-95
2022/08/28 07:59:24;;;;;;;15.70;11.07;;;20.60;99.90;;;;;;4951480;29;20927;-95
2022/08/28 08:01:52;;;;;;;15.25;11.43;;;20.70;99.90;;;;;;4950930;29;20481;-96
2022/08/28 08:04:22;;;;;;;16.33;12.00;;;20.80;99.90;;;;;;4936274;29;20410;-94
2022/08/28 08:06:52;;;;;;;17.20;11.75;;;20.90;99.90;;;;;;4963404;28;20408;-96
2022/08/28 08:09:25;;;;;;;14.38;11.18;;;21.00;99.90;;;;;;4954567;29;20483;-95
2022/08/28 08:11:56;;;;;;;16.90;11.90;;;21.00;99.90;;;;;;4954130;29;20412;-92
2022/08/28 08:14:24;;;;;;;16.58;11.00;;;21.10;99.90;;;;;;4953344;28;20399;-96
2022/08/28 08:16:53;;;;;;;14.95;11.02;;;21.10;99.90;;;;;;4954982;28;20427;-95
2022/08/28 08:19:21;;;;;;;15.15;11.10;;;20.90;99.90;;;;;;4953872;28;20399;-96
2022/08/28 08:21:50;;;;;;;16.05;10.45;;;20.80;99.90;;;;;;4953891;28;20407;-95
2022/08/28 08:24:27;;;;;;;14.25;11.07;;;20.80;99.90;;;;;;4953569;29;20966;-95
2022/08/28 08:26:58;;;;;;;13.80;10.38;;;20.80;99.90;;;;;;4950455;29;20933;-95
2022/08/28 08:29:30;;;;;;;16.20;11.18;;;20.70;99.90;;;;;;4950364;29;20421;-95
2022/08/28 08:32:05;;;;;;;15.82;11.75;;;20.70;99.90;;;;;;4934203;29;20951;-94
2022/08/28 08:34:37;;;;;;;15.05;11.35;;;20.70;99.90;;;;;;4934483;29;20889;-95
2022/08/28 08:37:06;;;;;;;16.33;10.98;;;20.80;99.90;;;;;;4934526;29;20838;-94
2022/08/28 08:39:35;;;;;;;18.43;13.20;;;20.90;99.90;;;;;;4952188;29;20434;-90
2022/08/28 08:42:07;;;;;;;13.57;10.60;;;21.00;99.90;;;;;;4961184;28;20505;-91
2022/08/28 08:44:37;;;;;;;17.10;10.30;;;21.20;99.90;;;;;;4957326;29;20412;-94
2022/08/28 08:47:34;;;;;;;13.80;9.13;;;21.30;99.90;;;;;;4973097;28;20736;-94
2022/08/28 08:50:16;;;;;;;13.73;9.57;;;21.60;99.90;;;;;;4953733;29;20460;-93
2022/08/28 08:52:50;;;;;;;13.40;10.30;;;21.70;99.90;;;;;;4961254;28;20495;-94
2022/08/28 08:55:31;;;;;;;13.20;9.63;;;21.70;99.90;;;;;;4960994;29;20428;-95
2022/08/28 08:58:01;;;;;;;12.80;9.77;;;21.70;99.90;;;;;;4959046;29;20397;-94
2022/08/28 09:00:41;;;;;;;14.25;9.25;;;21.90;99.90;;;;;;4973799;28;20452;-93
2022/08/28 09:03:21;;;;;;;13.43;9.73;;;22.00;99.90;;;;;;4957078;29;20419;-93
2022/08/28 09:05:55;;;;;;;12.03;9.03;;;22.00;99.90;;;;;;4952934;29;20409;-94
2022/08/28 09:08:46;;;;;;;13.70;9.60;;;22.10;99.90;;;;;;4960466;28;20447;-94
2022/08/28 09:11:43;;;;;;;16.20;9.90;;;22.30;99.90;;;;;;4937558;29;20827;-88
2022/08/28 09:14:53;;;;;;;13.32;9.43;;;22.40;99.90;;;;;;4969359;28;20412;-90
2022/08/28 09:17:26;;;;;;;21.17;15.48;;;22.60;99.90;;;;;;4963022;28;21001;-88
2022/08/28 09:19:54;;;;;;;14.18;9.82;;;22.70;99.90;;;;;;4966726;28;20416;-88
2022/08/28 09:22:22;;;;;;;13.93;10.00;;;22.70;99.90;;;;;;4952372;28;20410;-89
2022/08/28 09:24:50;;;;;;;14.67;9.43;;;22.90;99.90;;;;;;4956067;28;20396;-89
2022/08/28 09:27:30;;;;;;;12.55;9.80;;;23.00;99.90;;;;;;4962097;28;20778;-90
2022/08/28 09:30:05;;;;;;;11.70;9.17;;;23.10;99.90;;;;;;4966735;28;20414;-89
2022/08/28 09:32:43;;;;;;;15.80;9.38;;;23.10;99.90;;;;;;4955293;29;20413;-91
2022/08/28 09:35:23;;;;;;;15.88;9.35;;;23.10;99.90;;;;;;4969290;28;20414;-87
2022/08/28 09:37:51;;;;;;;13.52;9.60;;;23.20;99.90;;;;;;4957163;28;20396;-91
2022/08/28 09:40:21;;;;;;;14.13;9.50;;;23.10;99.90;;;;;;4956971;29;20442;-92
2022/08/28 09:43:25;;;;;;;13.77;9.18;;;23.20;99.90;;;;;;4956238;28;20518;-89
2022/08/28 09:46:05;;;;;;;15.00;9.85;;;23.10;99.90;;;;;;4937127;29;20408;-92
2022/08/28 09:48:42;;;;;;;14.87;9.33;;;23.00;99.90;;;;;;4961582;28;20399;-92
2022/08/28 09:51:13;;;;;;;12.88;9.57;;;22.80;99.90;;;;;;4955430;29;20891;-89
2022/08/28 09:53:55;;;;;;;28.20;23.03;;;22.80;99.90;;;;;;4952475;28;20508;-91
2022/08/28 09:56:26;;;;;;;15.20;11.52;;;22.80;99.90;;;;;;4965743;28;20512;-91
2022/08/28 09:58:56;;;;;;;17.40;10.10;;;22.70;99.90;;;;;;4968487;28;20409;-92
2022/08/28 10:01:48;;;;;;;13.45;10.02;;;22.70;99.90;;;;;;4936037;29;20534;-92
2022/08/28 10:04:46;;;;;;;15.23;9.68;;;22.60;99.90;;;;;;4935902;29;20546;-90
2022/08/28 10:07:18;;;;;;;14.10;9.93;;;22.70;99.90;;;;;;4954649;29;20406;-92
2022/08/28 10:10:01;;;;;;;11.57;9.00;;;22.70;99.90;;;;;;4955458;28;20416;-92
2022/08/28 10:12:58;;;;;;;14.68;9.50;;;22.90;99.90;;;;;;4949486;29;20880;-91
2022/08/28 10:15:44;;;;;;;15.68;9.65;;;23.20;99.90;;;;;;4951839;29;20446;-92
2022/08/28 10:18:28;;;;;;;12.63;9.17;;;23.50;99.90;;;;;;4951623;29;20846;-91
2022/08/28 10:21:19;;;;;;;13.38;9.45;;;23.60;99.90;;;;;;4962523;28;20405;-91
2022/08/28 10:24:25;;;;;;;12.65;9.60;;;23.70;99.90;;;;;;4966065;28;20917;-93
2022/08/28 10:27:03;;;;;;;14.40;9.55;;;23.90;99.90;;;;;;4951859;29;20434;-93
2022/08/28 10:29:49;;;;;;;13.07;9.23;;;24.10;99.90;;;;;;4946842;29;20411;-92
2022/08/28 10:32:41;;;;;;;12.03;9.03;;;24.30;99.90;;;;;;4951786;29;20410;-92
2022/08/28 10:35:37;;;;;;;12.15;9.10;;;24.30;99.90;;;;;;4967803;28;20448;-92
2022/08/28 10:38:12;;;;;;;17.52;13.75;;;24.50;99.90;;;;;;4954690;29;20412;-92
2022/08/28 10:40:54;;;;;;;17.27;12.23;;;24.50;99.90;;;;;;4951976;28;20425;-93
2022/08/28 10:43:46;;;;;;;22.57;11.57;;;24.60;99.90;;;;;;4954939;28;20416;-91
2022/08/28 10:46:35;;;;;;;13.32;9.38;;;24.80;99.90;;;;;;4943219;29;20485;-92
2022/08/28 10:49:10;;;;;;;13.68;9.52;;;24.70;99.90;;;;;;4951131;29;20422;-90
2022/08/28 10:51:50;;;;;;;13.10;9.43;;;24.90;99.90;;;;;;4936524;29;20788;-91
2022/08/28 10:54:27;;;;;;;15.07;9.25;;;24.90;99.90;;;;;;4953262;29;20458;-92
2022/08/28 10:57:06;;;;;;;14.35;9.50;;;24.90;99.90;;;;;;4959169;28;20410;-93
2022/08/28 10:59:35;;;;;;;15.53;10.27;;;24.90;99.90;;;;;;4969524;28;20474;-92
2022/08/28 11:02:12;;;;;;;14.32;9.60;;;25.00;99.90;;;;;;4952124;28;20419;-90
2022/08/28 11:04:40;;;;;;;17.75;11.73;;;24.90;99.90;;;;;;4936460;29;20781;-92
2022/08/28 11:07:12;;;;;;;15.07;10.52;;;25.20;99.90;;;;;;4935434;29;20824;-90
2022/08/28 11:09:47;;;;;;;14.90;10.70;;;25.20;99.90;;;;;;4936110;29;20390;-92
2022/08/28 11:12:15;;;;;;;14.23;10.50;;;25.40;99.90;;;;;;4966787;28;20426;-92
2022/08/28 11:14:46;;;;;;;14.00;9.70;;;25.40;99.90;;;;;;4954037;29;20443;-90
2022/08/28 11:17:21;;;;;;;12.43;9.60;;;25.40;99.90;;;;;;4955160;28;20407;-90
2022/08/28 11:20:02;;;;;;;14.63;10.45;;;25.40;99.90;;;;;;4955226;28;20396;-91
2022/08/28 11:22:42;;;;;;;11.52;10.32;;;25.60;99.90;;;;;;4969835;28;20404;-92
2022/08/28 11:25:41;;;;;;;12.18;10.40;;;25.70;99.90;;;;;;4955072;28;20483;-92
2022/08/28 11:28:35;;;;;;;12.55;10.60;;;25.70;99.90;;;;;;4968503;28;20505;-92
2022/08/28 11:31:03;;;;;;;11.13;10.00;;;25.80;99.90;;;;;;4953749;29;20910;-91
2022/08/28 11:33:47;;;;;;;12.68;10.07;;;26.00;99.90;;;;;;4953870;28;20400;-90
2022/08/28 11:36:18;;;;;;;12.82;10.30;;;26.00;99.90;;;;;;4937610;29;20499;-92
2022/08/28 11:38:54;;;;;;;13.10;10.18;;;25.60;99.90;;;;;;4953388;28;20422;-91
2022/08/28 11:41:59;;;;;;;12.60;10.63;;;25.70;99.90;;;;;;4948338;29;20411;-91
2022/08/28 11:44:39;;;;;;;14.38;11.43;;;26.00;99.90;;;;;;4953168;28;20467;-91
2022/08/28 11:47:38;;;;;;;15.43;11.17;;;26.00;99.90;;;;;;4953369;29;20470;-92
2022/08/28 11:50:50;;;;;;;13.80;9.95;;;26.00;99.90;;;;;;4954308;28;20396;-91
2022/08/28 11:53:30;;;;;;;15.55;10.07;;;25.60;99.90;;;;;;4953371;28;20803;-91
2022/08/28 11:56:35;;;;;;;12.70;9.43;;;25.90;99.90;;;;;;4957802;28;20499;-90
2022/08/28 11:59:24;;;;;;;15.63;10.02;;;26.20;99.90;;;;;;4953399;28;20454;-90
2022/08/28 12:02:37;;;;;;;11.57;9.90;;;26.20;99.90;;;;;;4949676;29;20419;-90
2022/08/28 12:05:30;;;;;;;12.65;10.18;;;26.30;99.90;;;;;;4940178;28;20420;-89
2022/08/28 12:08:01;;;;;;;14.30;9.93;;;26.40;99.90;;;;;;4952170;29;20475;-92
2022/08/28 12:10:31;;;;;;;13.68;10.55;;;26.50;99.90;;;;;;4951410;29;20422;-90
2022/08/28 12:13:01;;;;;;;15.20;10.35;;;26.70;99.90;;;;;;4953556;28;20412;-91
2022/08/28 12:15:29;;;;;;;11.85;9.43;;;26.70;99.90;;;;;;4952495;29;20396;-90
2022/08/28 12:18:21;;;;;;;11.02;9.70;;;26.90;99.90;;;;;;4949682;28;20495;-91
2022/08/28 12:21:04;;;;;;;16.27;9.77;;;26.40;99.90;;;;;;4932847;29;20412;-92
2022/08/28 12:23:42;;;;;;;13.20;9.90;;;26.50;99.90;;;;;;4940457;28;20898;-91
2022/08/28 12:26:31;;;;;;;12.60;9.43;;;26.70;99.90;;;;;;4955063;29;20412;-90
2022/08/28 12:29:01;;;;;;;11.33;10.00;;;26.80;99.90;;;;;;4963773;28;20430;-91
2022/08/28 12:34:42;;;;;;;13.93;10.30;;;27.00;99.90;;;;;;4953438;29;20786;-88
2022/08/28 12:37:31;;;;;;;12.20;9.90;;;27.10;99.90;;;;;;4956221;29;20396;-90
2022/08/28 12:40:40;;;;;;;12.82;9.90;;;27.30;99.90;;;;;;4956163;29;20400;-90
2022/08/28 12:43:10;;;;;;;13.40;9.88;;;27.50;99.90;;;;;;4954615;29;20420;-90
2022/08/28 12:45:50;;;;;;;14.55;10.50;;;27.30;99.90;;;;;;4961127;28;20390;-90
2022/08/28 12:48:23;;;;;;;13.25;10.20;;;27.30;99.90;;;;;;4955506;29;20427;-91
2022/08/28 12:51:12;;;;;;;12.48;9.65;;;27.50;99.90;;;;;;4955276;29;20977;-90
2022/08/28 12:53:43;;;;;;;14.38;9.68;;;27.60;99.90;;;;;;4961472;28;20914;-91
2022/08/28 12:56:14;;;;;;;13.63;10.10;;;27.50;99.90;;;;;;4954282;29;20413;-90
2022/08/28 12:58:42;;;;;;;18.48;10.63;;;27.40;99.90;;;;;;4964295;28;20471;-92
2022/08/28 13:01:40;;;;;;;11.90;9.50;;;27.60;99.90;;;;;;4937621;29;20945;-90
2022/08/28 13:04:32;;;;;;;13.13;10.00;;;27.70;99.90;;;;;;4949273;29;20417;-91
2022/08/28 13:07:12;;;;;;;12.77;9.88;;;27.80;99.90;;;;;;4969147;28;20408;-90
2022/08/28 13:09:50;;;;;;;12.95;10.23;;;27.70;99.90;;;;;;4954993;28;20408;-90